createdAt,value
2018-07-10T00:00:12.063Z,22.80
2018-07-10T00:03:22.777Z,22.80
2018-07-10T00:08:10.383Z,22.80
2018-07-10T00:11:50.793Z,22.50
2018-07-10T00:14:19.267Z,22.60
2018-07-10T00:16:47.484Z,22.50
2018-07-10T00:19:15.921Z,22.60
2018-07-10T00:21:44.283Z,22.60
2018-07-10T00:24:13.241Z,22.70
2018-07-10T00:26:41.633Z,22.70
2018-07-10T00:29:10.655Z,22.80
2018-07-10T00:34:07.350Z,23.00
2018-07-10T00:36:36.617Z,23.10
2018-07-10T00:39:08.054Z,22.90
2018-07-10T00:41:38.564Z,23.10
2018-07-10T00:44:07.269Z,23.30
2018-07-10T00:46:37.270Z,23.20
2018-07-10T00:49:05.921Z,23.00
2018-07-10T00:51:35.511Z,23.20
2018-07-10T00:54:04.521Z,23.10
2018-07-10T00:56:32.916Z,23.10
2018-07-10T00:59:03.482Z,22.90
2018-07-10T01:01:32.893Z,22.90
2018-07-10T01:04:01.414Z,22.90
2018-07-10T01:06:29.694Z,22.70
2018-07-10T01:08:58.586Z,22.70
2018-07-10T01:11:27.290Z,22.50
2018-07-10T01:13:55.762Z,22.60
2018-07-10T01:16:34.682Z,22.80
2018-07-10T01:19:11.021Z,22.80
2018-07-10T01:21:40.121Z,22.60
2018-07-10T01:24:08.494Z,22.40
2018-07-10T01:26:39.302Z,22.40
2018-07-10T01:29:15.904Z,22.20
2018-07-10T01:31:46.282Z,22.30
2018-07-10T01:34:15.233Z,22.00
2018-07-10T01:36:43.577Z,22.10
2018-07-10T01:39:12.509Z,22.20
2018-07-10T01:41:41.678Z,22.60
2018-07-10T01:44:11.217Z,22.70
2018-07-10T01:46:39.562Z,22.80
2018-07-10T01:49:07.852Z,22.80
2018-07-10T01:51:36.210Z,22.60
2018-07-10T01:54:04.498Z,22.30
2018-07-10T01:56:33.225Z,22.30
2018-07-10T01:59:01.833Z,22.30
2018-07-10T02:01:30.278Z,22.00
2018-07-10T02:03:59.650Z,21.70
2018-07-10T02:06:28.683Z,21.60
2018-07-10T02:08:57.458Z,21.70
2018-07-10T02:11:25.916Z,22.10
2018-07-10T02:13:54.410Z,22.10
2018-07-10T02:16:22.664Z,21.80
2018-07-10T02:18:51.250Z,21.60
2018-07-10T02:21:20.606Z,21.50
2018-07-10T02:23:49.041Z,21.70
2018-07-10T02:26:24.811Z,21.70
2018-07-10T02:28:54.040Z,21.90
2018-07-10T02:31:22.304Z,21.80
2018-07-10T02:33:51.895Z,21.80
2018-07-10T02:36:21.350Z,21.80
2018-07-10T02:38:52.322Z,21.60
2018-07-10T02:41:22.385Z,21.60
2018-07-10T02:43:55.807Z,21.30
2018-07-10T02:46:24.410Z,21.20
2018-07-10T02:48:53.322Z,21.30
2018-07-10T02:51:21.575Z,21.20
2018-07-10T02:53:49.879Z,21.30
2018-07-10T02:56:20.821Z,21.10
2018-07-10T02:58:50.827Z,20.90
2018-07-10T03:01:20.281Z,20.80
2018-07-10T03:03:49.131Z,20.80
2018-07-10T03:06:17.547Z,20.60
2018-07-10T03:08:46.109Z,20.80
2018-07-10T03:11:14.456Z,21.00
2018-07-10T03:13:42.976Z,20.90
2018-07-10T03:16:11.807Z,21.00
2018-07-10T03:18:40.774Z,20.90
2018-07-10T03:21:09.030Z,21.10
2018-07-10T03:23:37.305Z,21.20
2018-07-10T03:26:05.532Z,21.20
2018-07-10T03:28:33.874Z,21.10
2018-07-10T03:31:02.190Z,20.90
2018-07-10T03:33:30.501Z,20.90
2018-07-10T03:35:58.807Z,20.90
2018-07-10T03:38:27.834Z,20.80
2018-07-10T03:40:56.796Z,20.70
2018-07-10T03:43:25.445Z,21.10
2018-07-10T03:45:53.659Z,21.30
2018-07-10T03:48:21.873Z,21.40
2018-07-10T03:50:50.485Z,21.50
2018-07-10T03:53:21.292Z,21.60
2018-07-10T03:55:50.580Z,21.50
2018-07-10T03:58:19.858Z,21.40
2018-07-10T04:00:49.034Z,21.50
2018-07-10T04:03:19.823Z,21.40
2018-07-10T04:05:49.499Z,21.40
2018-07-10T04:08:17.835Z,21.50
2018-07-10T04:10:46.094Z,21.70
2018-07-10T04:13:19.406Z,21.60
2018-07-10T04:15:50.171Z,21.70
2018-07-10T04:18:21.613Z,21.60
2018-07-10T04:20:57.372Z,21.50
2018-07-10T04:23:29.708Z,21.50
2018-07-10T04:25:58.856Z,21.50
2018-07-10T04:28:31.588Z,21.40
2018-07-10T04:33:33.896Z,21.30
2018-07-10T04:38:30.507Z,21.30
2018-07-10T04:41:06.786Z,21.40
2018-07-10T04:43:35.190Z,21.30
2018-07-10T04:46:03.794Z,21.30
2018-07-10T04:48:38.217Z,21.30
2018-07-10T04:51:31.490Z,21.50
2018-07-10T04:54:09.901Z,21.60
2018-07-10T04:56:43.714Z,21.60
2018-07-10T04:59:12.152Z,21.80
2018-07-10T05:01:40.386Z,21.90
2018-07-10T05:04:08.607Z,22.00
2018-07-10T05:06:37.586Z,22.00
2018-07-10T05:09:06.503Z,22.10
2018-07-10T05:11:39.239Z,22.30
2018-07-10T05:14:07.612Z,22.30
2018-07-10T05:16:36.214Z,22.50
2018-07-10T05:19:04.652Z,22.60
2018-07-10T05:21:32.969Z,22.70
2018-07-10T05:24:01.278Z,22.70
2018-07-10T05:26:29.486Z,22.70
2018-07-10T05:28:58.181Z,22.70
2018-07-10T05:31:26.546Z,22.70
2018-07-10T05:33:54.752Z,22.80
2018-07-10T05:36:24.389Z,23.00
2018-07-10T05:39:00.590Z,23.00
2018-07-10T05:41:28.793Z,22.90
2018-07-10T05:43:57.250Z,22.90
2018-07-10T05:46:25.476Z,22.80
2018-07-10T05:48:58.259Z,22.60
2018-07-10T05:51:28.414Z,22.40
2018-07-10T05:53:57.326Z,22.30
2018-07-10T05:58:53.905Z,22.20
2018-07-10T06:01:22.143Z,22.30
2018-07-10T06:03:50.560Z,22.40
2018-07-10T06:06:18.823Z,22.40
2018-07-10T06:08:47.097Z,22.30
2018-07-10T06:11:15.372Z,22.50
2018-07-10T06:13:43.589Z,22.70
2018-07-10T06:16:12.907Z,22.80
2018-07-10T06:18:41.119Z,23.10
2018-07-10T06:21:09.338Z,23.20
2018-07-10T06:23:41.024Z,23.20
2018-07-10T06:26:09.743Z,23.20
2018-07-10T06:28:39.802Z,23.40
2018-07-10T06:31:13.146Z,23.60
2018-07-10T06:34:02.306Z,23.70
2018-07-10T06:36:33.010Z,23.90
2018-07-10T06:39:08.190Z,24.20
2018-07-10T06:41:39.160Z,24.30
2018-07-10T06:44:07.515Z,24.20
2018-07-10T06:46:41.667Z,24.30
2018-07-10T06:49:46.035Z,24.40
2018-07-10T06:52:20.525Z,24.70
2018-07-10T06:54:55.618Z,25.00
2018-07-10T06:57:27.920Z,24.60
2018-07-10T06:59:56.729Z,24.90
2018-07-10T07:02:25.359Z,25.30
2018-07-10T07:04:53.572Z,25.60
2018-07-10T07:07:21.802Z,26.00
2018-07-10T07:09:50.171Z,25.60
2018-07-10T07:12:18.674Z,25.40
2018-07-10T07:14:46.938Z,24.90
2018-07-10T07:17:15.330Z,24.50
2018-07-10T07:19:43.526Z,24.10
2018-07-10T07:22:11.903Z,23.80
2018-07-10T07:24:40.103Z,23.40
2018-07-10T07:27:08.313Z,23.20
2018-07-10T07:29:36.518Z,23.10
2018-07-10T07:32:04.759Z,23.10
2018-07-10T07:34:32.970Z,23.00
2018-07-10T07:37:01.169Z,23.10
2018-07-10T07:39:29.418Z,23.20
2018-07-10T07:41:57.851Z,23.40
2018-07-10T07:44:26.255Z,23.40
2018-07-10T07:46:54.478Z,23.30
2018-07-10T07:49:22.697Z,23.50
2018-07-10T07:51:50.912Z,23.70
2018-07-10T07:54:19.234Z,23.70
2018-07-10T07:56:47.466Z,23.70
2018-07-10T07:59:15.642Z,23.70
2018-07-10T08:01:43.872Z,23.50
2018-07-10T08:04:12.282Z,23.50
2018-07-10T08:06:40.593Z,23.50
2018-07-10T08:09:09.242Z,23.50
2018-07-10T08:11:37.530Z,23.60
2018-07-10T08:14:05.771Z,23.60
2018-07-10T08:16:33.978Z,23.40
2018-07-10T08:19:02.993Z,23.70
2018-07-10T08:21:31.186Z,23.80
2018-07-10T08:23:59.391Z,23.60
2018-07-10T08:26:27.690Z,23.50
2018-07-10T08:28:56.470Z,23.20
2018-07-10T08:31:24.854Z,23.10
2018-07-10T08:33:54.479Z,23.00
2018-07-10T08:36:22.687Z,22.90
2018-07-10T08:38:50.904Z,22.80
2018-07-10T08:41:22.079Z,22.80
2018-07-10T08:43:50.686Z,23.00
2018-07-10T08:46:27.905Z,23.20
2018-07-10T08:48:56.180Z,23.80
2018-07-10T08:51:24.461Z,24.00
2018-07-10T08:53:54.820Z,24.30
2018-07-10T08:56:23.027Z,24.50
2018-07-10T08:58:51.224Z,24.70
2018-07-10T09:01:19.635Z,25.00
2018-07-10T09:06:15.967Z,25.40
2018-07-10T09:08:44.189Z,25.40
2018-07-10T09:11:12.650Z,25.30
2018-07-10T09:13:41.022Z,25.30
2018-07-10T09:16:09.247Z,25.30
2018-07-10T09:18:37.458Z,25.40
2018-07-10T09:21:05.854Z,25.50
2018-07-10T09:23:34.642Z,25.50
2018-07-10T09:26:03.575Z,25.40
2018-07-10T09:28:34.536Z,24.60
2018-07-10T09:31:03.417Z,23.80
2018-07-10T09:33:32.771Z,23.10
2018-07-10T09:36:01.581Z,22.30
2018-07-10T09:38:29.834Z,21.90
2018-07-10T09:40:58.134Z,21.80
2018-07-10T09:43:27.803Z,21.60
2018-07-10T09:45:56.496Z,21.60
2018-07-10T09:48:24.730Z,23.10
2018-07-10T09:50:52.943Z,26.10
2018-07-10T09:53:21.538Z,27.60
2018-07-10T09:55:49.870Z,28.00
2018-07-10T09:58:19.335Z,28.40
2018-07-10T10:00:53.152Z,29.60
2018-07-10T10:03:22.915Z,29.50
2018-07-10T10:05:51.122Z,29.00
2018-07-10T10:08:19.656Z,28.30
2018-07-10T10:10:47.851Z,27.80
2018-07-10T10:13:16.371Z,27.60
2018-07-10T10:15:44.590Z,27.80
2018-07-10T10:18:13.347Z,28.40
2018-07-10T10:20:42.126Z,28.50
2018-07-10T10:23:11.434Z,29.00
2018-07-10T10:25:42.739Z,29.50
2018-07-10T10:28:11.066Z,29.80
2018-07-10T10:30:40.262Z,30.00
2018-07-10T10:33:09.250Z,30.10
2018-07-10T10:35:37.557Z,30.60
2018-07-10T10:38:06.615Z,31.50
2018-07-10T10:40:39.318Z,33.90
2018-07-10T10:43:10.340Z,36.60
2018-07-10T10:45:41.128Z,39.30
2018-07-10T10:48:09.371Z,41.90
2018-07-10T10:50:38.614Z,42.60
2018-07-10T10:53:06.818Z,41.00
2018-07-10T10:55:35.915Z,39.20
2018-07-10T10:58:04.354Z,37.30
2018-07-10T11:00:32.747Z,35.60
2018-07-10T11:05:30.255Z,33.50
2018-07-10T11:07:59.414Z,32.60
2018-07-10T11:10:29.123Z,31.60
2018-07-10T11:12:57.458Z,30.80
2018-07-10T11:15:25.672Z,30.20
2018-07-10T11:18:03.704Z,29.60
2018-07-10T11:20:38.539Z,28.90
2018-07-10T11:23:08.082Z,28.20
2018-07-10T11:25:41.581Z,27.80
2018-07-10T11:28:11.940Z,27.50
2018-07-10T11:30:40.367Z,27.40
2018-07-10T11:33:09.421Z,27.30
2018-07-10T11:35:38.311Z,27.10
2018-07-10T11:38:11.866Z,27.10
2018-07-10T11:40:42.582Z,26.90
2018-07-10T11:43:12.550Z,26.90
2018-07-10T11:45:40.868Z,27.00
2018-07-10T11:48:09.975Z,27.10
2018-07-10T11:50:38.269Z,27.30
2018-07-10T11:53:06.499Z,27.20
2018-07-10T11:55:35.672Z,27.20
2018-07-10T11:58:06.266Z,27.40
2018-07-10T12:00:35.362Z,27.60
2018-07-10T12:03:04.966Z,28.00
2018-07-10T12:05:35.035Z,28.50
2018-07-10T12:08:03.648Z,29.20
2018-07-10T12:10:33.630Z,29.10
2018-07-10T12:13:01.931Z,29.20
2018-07-10T12:15:30.319Z,28.90
2018-07-10T12:17:59.234Z,28.90
2018-07-10T12:20:39.222Z,29.10
2018-07-10T12:23:08.280Z,29.00
2018-07-10T12:25:38.530Z,28.80
2018-07-10T12:28:08.129Z,29.70
2018-07-10T12:30:36.398Z,30.00
2018-07-10T12:33:06.006Z,30.00
2018-07-10T12:35:34.334Z,29.40
2018-07-10T12:38:02.723Z,28.90
2018-07-10T12:40:31.643Z,28.10
2018-07-10T12:42:59.874Z,27.60
2018-07-10T12:45:28.799Z,27.10
2018-07-10T12:47:57.790Z,26.60
2018-07-10T12:50:26.588Z,26.30
2018-07-10T12:52:55.202Z,26.00
2018-07-10T12:55:24.078Z,26.10
2018-07-10T12:57:52.294Z,26.20
2018-07-10T13:00:20.962Z,26.20
2018-07-10T13:02:51.719Z,26.00
2018-07-10T13:05:21.455Z,25.80
2018-07-10T13:07:49.825Z,25.80
2018-07-10T13:10:18.326Z,25.60
2018-07-10T13:12:46.535Z,25.30
2018-07-10T13:15:14.767Z,25.00
2018-07-10T13:17:48.524Z,25.00
2018-07-10T13:20:17.527Z,25.40
2018-07-10T13:22:45.818Z,25.70
2018-07-10T13:25:14.050Z,25.90
2018-07-10T13:27:43.466Z,26.00
2018-07-10T13:30:11.686Z,26.30
2018-07-10T13:32:40.285Z,26.00
2018-07-10T13:35:08.501Z,25.80
2018-07-10T13:37:37.376Z,25.80
2018-07-10T13:40:05.797Z,25.80
2018-07-10T13:42:55.863Z,25.60
2018-07-10T13:45:25.358Z,25.50
2018-07-10T13:47:53.719Z,25.20
2018-07-10T13:50:26.059Z,24.90
2018-07-10T13:52:55.603Z,24.80
2018-07-10T13:55:24.179Z,24.30
2018-07-10T13:58:04.017Z,23.90
2018-07-10T14:00:32.691Z,23.80
2018-07-10T14:03:00.908Z,23.40
2018-07-10T14:05:29.126Z,23.40
2018-07-10T14:07:58.054Z,23.70
2018-07-10T14:10:26.402Z,23.90
2018-07-10T14:12:54.611Z,23.80
2018-07-10T14:15:22.998Z,23.80
2018-07-10T14:17:51.994Z,24.10
2018-07-10T14:20:20.296Z,24.90
2018-07-10T14:22:48.792Z,25.50
2018-07-10T14:25:17.007Z,25.70
2018-07-10T14:27:46.966Z,26.00
2018-07-10T14:30:15.209Z,26.40
2018-07-10T14:32:44.127Z,27.50
2018-07-10T14:35:12.464Z,28.50
2018-07-10T14:37:40.690Z,30.40
2018-07-10T14:40:08.965Z,31.30
2018-07-10T14:42:37.563Z,31.50
2018-07-10T14:45:06.988Z,30.80
2018-07-10T14:47:36.770Z,30.10
2018-07-10T14:50:05.079Z,29.80
2018-07-10T14:52:33.335Z,29.40
2018-07-10T14:55:01.520Z,29.00
2018-07-10T14:57:29.882Z,28.60
2018-07-10T14:59:58.230Z,28.20
2018-07-10T15:02:27.138Z,27.80
2018-07-10T15:04:55.413Z,27.90
2018-07-10T15:07:23.659Z,27.90
2018-07-10T15:09:51.874Z,27.60
2018-07-10T15:12:21.097Z,27.30
2018-07-10T15:14:49.834Z,26.90
2018-07-10T15:17:23.286Z,26.90
2018-07-10T15:19:51.506Z,26.50
2018-07-10T15:22:19.921Z,26.10
2018-07-10T15:24:48.162Z,26.40
2018-07-10T15:27:16.379Z,26.30
2018-07-10T15:29:44.602Z,26.80
2018-07-10T15:32:12.991Z,27.20
2018-07-10T15:34:41.238Z,27.30
2018-07-10T15:37:09.563Z,27.30
2018-07-10T15:39:37.816Z,27.50
2018-07-10T15:42:06.052Z,27.50
2018-07-10T15:44:34.682Z,27.30
2018-07-10T15:47:02.947Z,27.00
2018-07-10T15:49:31.162Z,27.30
2018-07-10T15:52:00.224Z,27.50
2018-07-10T15:54:29.293Z,27.70
2018-07-10T15:56:58.490Z,28.00
2018-07-10T15:59:26.844Z,27.90
2018-07-10T16:01:55.079Z,28.30
2018-07-10T16:04:23.290Z,28.50
2018-07-10T16:06:52.056Z,28.70
2018-07-10T16:09:21.060Z,28.90
2018-07-10T16:11:53.318Z,28.80
2018-07-10T16:14:21.623Z,28.80
2018-07-10T16:16:50.018Z,28.40
2018-07-10T16:19:27.362Z,28.20
2018-07-10T16:22:04.095Z,28.20
2018-07-10T16:24:37.532Z,28.00
2018-07-10T16:27:06.420Z,28.00
2018-07-10T16:29:35.437Z,27.90
2018-07-10T16:32:06.067Z,27.70
2018-07-10T16:34:34.409Z,27.70
2018-07-10T16:37:04.270Z,27.50
2018-07-10T16:39:32.746Z,27.40
2018-07-10T16:42:06.473Z,27.20
2018-07-10T16:44:37.052Z,26.80
2018-07-10T16:47:09.419Z,26.70
2018-07-10T16:49:45.942Z,26.60
2018-07-10T16:52:24.778Z,26.80
2018-07-10T16:54:53.244Z,26.60
2018-07-10T16:57:21.568Z,26.00
2018-07-10T16:59:49.802Z,25.50
2018-07-10T17:02:18.078Z,25.40
2018-07-10T17:04:47.063Z,25.20
2018-07-10T17:07:15.310Z,25.20
2018-07-10T17:09:44.324Z,25.00
2018-07-10T17:12:12.723Z,25.00
2018-07-10T17:14:46.641Z,25.00
2018-07-10T17:17:15.050Z,24.80
2018-07-10T17:19:43.725Z,24.70
2018-07-10T17:22:12.107Z,24.50
2018-07-10T17:24:40.351Z,24.30
2018-07-10T17:27:08.628Z,24.10
2018-07-10T17:29:36.923Z,23.90
2018-07-10T17:32:05.824Z,23.50
2018-07-10T17:34:34.312Z,23.40
2018-07-10T17:37:02.546Z,23.40
2018-07-10T17:39:31.000Z,23.30
2018-07-10T17:41:59.874Z,23.00
2018-07-10T17:44:28.753Z,22.90
2018-07-10T17:46:57.291Z,22.80
2018-07-10T17:49:25.798Z,22.60
2018-07-10T17:51:54.699Z,22.70
2018-07-10T17:54:23.294Z,22.60
2018-07-10T17:56:52.442Z,22.60
2018-07-10T17:59:21.674Z,22.60
2018-07-10T18:01:50.165Z,22.60
2018-07-10T18:04:18.514Z,22.70
2018-07-10T18:06:46.858Z,22.80
2018-07-10T18:09:15.158Z,22.90
2018-07-10T18:11:43.974Z,23.20
2018-07-10T18:14:12.764Z,23.20
2018-07-10T18:16:41.071Z,23.40
2018-07-10T18:19:09.322Z,23.30
2018-07-10T18:21:37.646Z,23.30
2018-07-10T18:24:05.999Z,23.40
2018-07-10T18:26:34.425Z,23.20
2018-07-10T18:29:03.430Z,23.10
2018-07-10T18:31:31.698Z,23.10
2018-07-10T18:34:00.059Z,23.20
2018-07-10T18:36:29.263Z,23.20
2018-07-10T18:38:58.509Z,23.10
2018-07-10T18:41:27.099Z,23.00
2018-07-10T18:43:55.354Z,22.90
2018-07-10T18:46:23.642Z,23.10
2018-07-10T18:48:51.913Z,23.00
2018-07-10T18:51:22.014Z,22.90
2018-07-10T18:53:50.570Z,22.90
2018-07-10T18:56:19.048Z,22.90
2018-07-10T18:59:09.590Z,22.80
2018-07-10T19:02:03.840Z,22.70
2018-07-10T19:04:44.257Z,22.60
2018-07-10T19:07:14.719Z,22.20
2018-07-10T19:10:14.792Z,22.10
2018-07-10T19:13:17.698Z,22.00
2018-07-10T19:15:48.377Z,21.80
2018-07-10T19:18:17.410Z,21.50
2018-07-10T19:20:55.738Z,21.30
2018-07-10T19:23:28.538Z,21.20
2018-07-10T19:25:56.993Z,21.20
2018-07-10T19:28:25.216Z,21.20
2018-07-10T19:31:00.847Z,21.10
2018-07-10T19:33:29.115Z,21.00
2018-07-10T19:35:58.401Z,21.10
2018-07-10T19:38:26.809Z,21.10
2018-07-10T19:40:55.054Z,21.20
2018-07-10T19:43:23.586Z,21.00
2018-07-10T19:45:51.992Z,21.00
2018-07-10T19:48:20.419Z,20.90
2018-07-10T19:50:48.686Z,21.00
2018-07-10T19:53:16.930Z,20.90
2018-07-10T19:55:45.226Z,21.00
2018-07-10T19:58:37.189Z,20.70
2018-07-10T20:01:14.227Z,20.60
2018-07-10T20:04:58.230Z,20.60
2018-07-10T20:07:33.160Z,20.40
2018-07-10T20:10:09.260Z,20.10
2018-07-10T20:12:44.294Z,20.00
2018-07-10T20:15:23.208Z,20.00
2018-07-10T20:18:08.832Z,19.90
2018-07-10T20:20:39.142Z,20.00
2018-07-10T20:23:13.375Z,19.90
2018-07-10T20:25:50.784Z,19.90
2018-07-10T20:28:28.174Z,20.00
2018-07-10T20:31:04.921Z,20.10
2018-07-10T20:33:41.910Z,19.70
2018-07-10T20:36:10.226Z,19.50
2018-07-10T20:38:38.677Z,19.40
2018-07-10T20:41:07.705Z,19.20
2018-07-10T20:43:39.946Z,19.50
2018-07-10T20:46:09.260Z,19.30
2018-07-10T20:48:42.942Z,19.30
2018-07-10T20:51:11.967Z,19.30
2018-07-10T20:53:53.795Z,19.40
2018-07-10T20:58:34.640Z,19.40
2018-07-10T21:01:05.284Z,19.50
2018-07-10T21:03:57.807Z,19.40
2018-07-10T21:06:33.853Z,19.50
2018-07-10T21:09:07.207Z,19.50
2018-07-10T21:11:46.457Z,19.60
2018-07-10T21:14:23.459Z,19.50
2018-07-10T21:16:54.829Z,19.60
2018-07-10T21:19:37.114Z,19.70
2018-07-10T21:22:10.315Z,20.00
2018-07-10T21:24:45.714Z,20.30
2018-07-10T21:27:22.689Z,20.60
2018-07-10T21:30:02.314Z,20.50
2018-07-10T21:32:37.078Z,20.50
2018-07-10T21:35:07.670Z,20.40
2018-07-10T21:37:47.312Z,20.20
2018-07-10T21:41:39.554Z,20.00
2018-07-10T21:44:18.812Z,20.20
2018-07-10T21:46:51.194Z,20.00
2018-07-10T21:49:38.142Z,20.00
2018-07-10T21:52:06.450Z,20.20
2018-07-10T21:54:34.729Z,20.40
2018-07-10T21:57:03.071Z,20.50
2018-07-10T21:59:32.409Z,20.50
2018-07-10T22:02:09.543Z,20.40
2018-07-10T22:04:39.093Z,20.20
2018-07-10T22:07:10.438Z,19.70
2018-07-10T22:09:39.430Z,19.60
2018-07-10T22:12:10.809Z,20.00
2018-07-10T22:14:39.649Z,20.20
2018-07-10T22:17:14.448Z,19.80
2018-07-10T22:19:46.739Z,19.40
2018-07-10T22:22:19.453Z,19.30
2018-07-10T22:24:48.781Z,19.30
2018-07-10T22:27:17.362Z,19.10
2018-07-10T22:29:52.205Z,18.90
2018-07-10T22:32:26.771Z,18.70
2018-07-10T22:34:55.276Z,18.60
2018-07-10T22:37:23.611Z,18.60
2018-07-10T22:39:51.887Z,18.60
2018-07-10T22:42:20.950Z,18.50
2018-07-10T22:44:52.397Z,18.40
2018-07-10T22:47:36.918Z,18.40
2018-07-10T22:50:08.452Z,18.90
2018-07-10T22:52:39.738Z,19.30
2018-07-10T22:55:08.243Z,19.50
2018-07-10T22:57:36.678Z,19.40
2018-07-10T23:00:05.627Z,19.20
2018-07-10T23:02:33.940Z,19.40
2018-07-10T23:05:02.437Z,19.80
2018-07-10T23:07:30.990Z,19.60
2018-07-10T23:09:59.171Z,19.60
2018-07-10T23:12:27.891Z,20.10
2018-07-10T23:14:56.339Z,20.20
2018-07-10T23:17:24.747Z,20.00
2018-07-10T23:19:53.043Z,19.60
2018-07-10T23:23:01.693Z,19.20
2018-07-10T23:25:30.246Z,19.20
2018-07-10T23:28:02.023Z,19.20
2018-07-10T23:30:38.096Z,19.10
2018-07-10T23:33:08.623Z,19.60
2018-07-10T23:35:37.106Z,19.70
2018-07-10T23:38:10.132Z,19.80
2018-07-10T23:40:40.424Z,19.80
2018-07-10T23:43:08.961Z,20.00
2018-07-10T23:45:37.642Z,20.00
2018-07-10T23:48:06.716Z,20.10
2018-07-10T23:50:36.027Z,19.70
2018-07-10T23:53:46.979Z,19.80
2018-07-10T23:56:15.746Z,19.90
2018-07-10T23:58:44.825Z,19.70
